createdAt,value
2024-01-14T00:00:33.844Z,52.40
2024-01-14T00:05:34.895Z,53.40
2024-01-14T00:10:36.868Z,52.20
2024-01-14T00:15:36.931Z,54.20
2024-01-14T00:20:36.834Z,50.10
2024-01-14T00:25:35.951Z,44.30
2024-01-14T00:30:36.977Z,44.30
2024-01-14T00:35:38.689Z,52.90
2024-01-14T00:40:38.620Z,55.80
2024-01-14T00:45:39.578Z,55.60
2024-01-14T00:50:40.580Z,78.00
2024-01-14T00:55:42.485Z,47.70
2024-01-14T01:00:41.695Z,63.50
2024-01-14T01:05:42.733Z,88.60
2024-01-14T01:10:43.689Z,71.20
2024-01-14T01:15:48.631Z,49.70
2024-01-14T01:20:45.919Z,43.50
2024-01-14T01:25:46.918Z,54.70
2024-01-14T01:30:48.002Z,101.80
2024-01-14T01:35:49.969Z,73.70
2024-01-14T01:40:48.938Z,83.00
2024-01-14T01:45:49.914Z,101.60
2024-01-14T01:50:50.878Z,100.50
2024-01-14T01:55:51.819Z,227.50
2024-01-14T02:00:52.892Z,216.00
2024-01-14T02:05:53.953Z,239.90
2024-01-14T02:10:54.863Z,82.00
2024-01-14T02:15:55.888Z,61.70
2024-01-14T02:20:56.875Z,51.70
2024-01-14T02:25:57.878Z,63.20
2024-01-14T02:30:58.884Z,68.40
2024-01-14T02:35:59.854Z,124.20
2024-01-14T02:41:01.722Z,77.20
2024-01-14T02:46:00.689Z,67.60
2024-01-14T02:51:02.704Z,98.00
2024-01-14T02:56:01.660Z,74.80
2024-01-14T03:01:03.686Z,66.90
2024-01-14T03:06:02.713Z,83.10
2024-01-14T03:11:02.180Z,98.20
2024-01-14T03:16:03.183Z,202.70
2024-01-14T03:21:04.151Z,151.80
2024-01-14T03:26:05.168Z,136.50
2024-01-14T03:31:06.222Z,182.50
2024-01-14T03:36:07.231Z,184.00
2024-01-14T03:41:09.117Z,285.70
2024-01-14T03:46:08.077Z,395.80
2024-01-14T03:51:09.193Z,251.80
2024-01-14T03:56:10.168Z,137.00
2024-01-14T04:01:11.186Z,152.50
2024-01-14T04:06:16.196Z,223.70
2024-01-14T04:11:15.206Z,156.90
2024-01-14T04:16:14.205Z,220.40
2024-01-14T04:21:16.109Z,102.00
2024-01-14T04:26:15.023Z,196.50
2024-01-14T04:31:16.019Z,120.70
2024-01-14T04:36:17.059Z,136.20
2024-01-14T04:41:18.001Z,119.40
2024-01-14T04:46:18.916Z,178.10
2024-01-14T04:51:20.415Z,136.80
2024-01-14T04:56:19.362Z,120.40
2024-01-14T05:01:20.376Z,214.10
2024-01-14T05:06:20.454Z,152.10
2024-01-14T05:11:22.416Z,125.20
2024-01-14T05:16:21.393Z,144.50
2024-01-14T05:21:22.410Z,166.60
2024-01-14T05:26:23.350Z,204.90
2024-01-14T05:31:24.368Z,171.10
2024-01-14T05:36:25.358Z,97.60
2024-01-14T05:41:26.286Z,136.90
2024-01-14T05:46:28.168Z,206.30
2024-01-14T05:51:27.178Z,163.10
2024-01-14T05:56:29.149Z,138.50
2024-01-14T06:01:28.184Z,106.60
2024-01-14T06:06:29.239Z,163.40
2024-01-14T06:11:30.273Z,107.00
2024-01-14T06:16:31.314Z,108.90
2024-01-14T06:21:32.406Z,98.70
2024-01-14T06:26:33.401Z,122.80
2024-01-14T06:31:34.507Z,91.50
2024-01-14T06:36:35.592Z,129.80
2024-01-14T06:41:36.749Z,216.20
2024-01-14T06:46:37.777Z,201.50
2024-01-14T06:51:39.055Z,123.30
2024-01-14T06:56:40.055Z,93.90
2024-01-14T07:01:41.094Z,155.50
2024-01-14T07:06:42.311Z,223.30
2024-01-14T07:11:43.394Z,127.50
2024-01-14T07:16:45.283Z,104.10
2024-01-14T07:21:44.234Z,106.30
2024-01-14T07:26:45.234Z,87.90
2024-01-14T07:31:45.339Z,92.40
2024-01-14T07:36:46.367Z,111.60
2024-01-14T07:41:47.309Z,125.00
2024-01-14T07:46:48.299Z,125.70
2024-01-14T07:51:49.307Z,309.30
2024-01-14T07:56:50.263Z,201.80
2024-01-14T08:01:51.311Z,238.60
2024-01-14T08:06:52.291Z,174.40
2024-01-14T08:11:54.310Z,109.00
2024-01-14T08:16:53.294Z,82.60
2024-01-14T08:21:54.290Z,156.00
2024-01-14T08:26:55.331Z,121.70
2024-01-14T08:31:56.341Z,129.80
2024-01-14T08:36:57.414Z,77.20
2024-01-14T08:41:59.411Z,268.10
2024-01-14T08:46:58.446Z,176.50
2024-01-14T08:51:59.447Z,88.00
2024-01-14T08:56:59.503Z,154.50
2024-01-14T09:02:00.433Z,76.90
2024-01-14T09:07:03.421Z,133.30
2024-01-14T09:12:02.443Z,63.90
2024-01-14T09:17:04.308Z,97.00
2024-01-14T09:22:03.349Z,58.50
2024-01-14T09:27:05.481Z,49.00
2024-01-14T09:32:04.514Z,53.10
2024-01-14T09:37:05.595Z,52.20
2024-01-14T09:42:06.667Z,61.90
2024-01-14T09:47:07.612Z,49.00
2024-01-14T09:52:09.543Z,57.10
2024-01-14T09:57:08.651Z,68.00
2024-01-14T10:02:10.585Z,77.50
2024-01-14T10:07:09.728Z,56.80
2024-01-14T10:12:10.828Z,58.70
2024-01-14T10:17:11.824Z,181.50
2024-01-14T10:22:17.178Z,62.50
2024-01-14T10:27:12.801Z,42.80
2024-01-14T10:32:13.718Z,45.90
2024-01-14T10:37:14.710Z,49.80
2024-01-14T10:42:15.740Z,63.40
2024-01-14T10:47:16.915Z,64.70
2024-01-14T10:52:17.852Z,67.80
2024-01-14T10:57:19.833Z,97.30
2024-01-14T11:02:19.055Z,59.70
2024-01-14T11:07:20.155Z,25.60
2024-01-14T11:12:24.886Z,23.30
2024-01-14T11:17:20.837Z,27.20
2024-01-14T11:22:31.998Z,40.10
2024-01-14T11:27:25.378Z,32.00
2024-01-14T11:32:23.042Z,30.80
2024-01-14T11:37:23.987Z,38.40
2024-01-14T11:42:25.015Z,28.40
2024-01-14T11:47:25.997Z,30.70
2024-01-14T11:52:26.996Z,35.80
2024-01-14T11:57:27.924Z,29.70
2024-01-14T12:02:28.873Z,28.60
2024-01-14T12:07:30.937Z,25.10
2024-01-14T12:12:29.875Z,32.00
2024-01-14T12:17:29.968Z,31.80
2024-01-14T12:22:30.926Z,29.00
2024-01-14T12:27:31.244Z,27.40
2024-01-14T12:32:32.295Z,25.20
2024-01-14T12:37:33.294Z,27.30
2024-01-14T12:42:35.524Z,24.80
2024-01-14T12:47:35.508Z,29.00
2024-01-14T12:52:36.471Z,21.80
2024-01-14T12:57:37.511Z,24.30
2024-01-14T13:02:38.801Z,21.50
2024-01-14T13:07:39.835Z,24.30
2024-01-14T13:12:41.101Z,29.90
2024-01-14T13:17:42.101Z,24.40
2024-01-14T13:22:44.097Z,25.60
2024-01-14T13:27:43.081Z,23.60
2024-01-14T13:32:44.165Z,26.20
2024-01-14T13:37:45.143Z,27.20
2024-01-14T13:42:46.194Z,24.90
2024-01-14T13:47:47.256Z,26.10
2024-01-14T13:52:48.147Z,22.70
2024-01-14T13:57:49.366Z,26.80
2024-01-14T14:02:50.298Z,28.70
2024-01-14T14:07:52.236Z,26.80
2024-01-14T14:12:51.362Z,27.60
2024-01-14T14:17:54.088Z,26.80
2024-01-14T14:22:52.992Z,24.00
2024-01-14T14:27:53.982Z,23.40
2024-01-14T14:32:55.415Z,25.50
2024-01-14T14:37:56.398Z,24.50
2024-01-14T14:42:56.354Z,23.00
2024-01-14T14:47:57.603Z,26.30
2024-01-14T14:52:58.632Z,25.60
2024-01-14T14:57:59.599Z,26.90
2024-01-14T15:03:00.683Z,26.10
2024-01-14T15:08:01.814Z,27.10
2024-01-14T15:13:02.717Z,31.80
2024-01-14T15:18:05.090Z,26.60
2024-01-14T15:23:04.188Z,25.30
2024-01-14T15:28:05.144Z,25.50
2024-01-14T15:33:06.597Z,35.10
2024-01-14T15:38:05.839Z,29.60
2024-01-14T15:43:07.790Z,29.20
2024-01-14T15:48:07.216Z,33.90
2024-01-14T15:53:08.245Z,34.70
2024-01-14T15:58:09.506Z,44.40
2024-01-14T16:03:09.520Z,34.80
2024-01-14T16:08:10.480Z,52.60
2024-01-14T16:13:11.505Z,38.70
2024-01-14T16:18:14.471Z,49.70
2024-01-14T16:23:13.387Z,39.20
2024-01-14T16:28:14.399Z,37.50
2024-01-14T16:33:14.492Z,41.90
2024-01-14T16:38:15.503Z,67.90
2024-01-14T16:43:17.618Z,41.60
2024-01-14T16:48:16.734Z,40.50
2024-01-14T16:53:16.668Z,44.30
2024-01-14T16:58:17.672Z,41.50
2024-01-14T17:03:18.718Z,54.70
2024-01-14T17:08:19.760Z,64.10
2024-01-14T17:13:20.808Z,64.40
2024-01-14T17:18:21.860Z,41.10
2024-01-14T17:23:22.883Z,42.90
2024-01-14T17:28:27.816Z,43.10
2024-01-14T17:33:24.817Z,51.30
2024-01-14T17:38:26.796Z,47.20
2024-01-14T17:43:26.659Z,53.50
2024-01-14T17:48:26.837Z,53.30
2024-01-14T17:53:26.111Z,48.50
2024-01-14T17:58:28.035Z,45.30
2024-01-14T18:03:27.232Z,43.30
2024-01-14T18:08:28.256Z,40.60
2024-01-14T18:13:29.268Z,38.40
2024-01-14T18:18:32.336Z,39.50
2024-01-14T18:23:31.422Z,40.40
2024-01-14T18:28:33.481Z,40.40
2024-01-14T18:33:32.582Z,45.70
2024-01-14T18:38:33.644Z,37.30
2024-01-14T18:43:34.707Z,37.50
2024-01-14T18:48:36.734Z,39.80
2024-01-14T18:53:36.792Z,46.10
2024-01-14T18:58:36.881Z,37.90
2024-01-14T19:03:36.110Z,35.70
2024-01-14T19:08:37.335Z,38.80
2024-01-14T19:13:38.416Z,38.10
2024-01-14T19:18:39.696Z,41.90
2024-01-14T19:23:40.915Z,36.50
2024-01-14T19:28:41.910Z,38.00
2024-01-14T19:33:43.052Z,39.00
2024-01-14T19:38:45.190Z,40.40
2024-01-14T19:43:44.249Z,41.10
2024-01-14T19:48:45.639Z,39.10
2024-01-14T19:53:47.746Z,38.00
2024-01-14T19:58:47.972Z,41.50
2024-01-14T20:03:47.231Z,37.00
2024-01-14T20:08:48.342Z,35.30
2024-01-14T20:13:49.511Z,35.90
2024-01-14T20:18:50.898Z,36.50
2024-01-14T20:23:52.010Z,38.90
2024-01-14T20:28:54.138Z,37.80
2024-01-14T20:33:54.456Z,38.80
2024-01-14T20:38:53.759Z,36.00
2024-01-14T20:43:55.121Z,42.90
2024-01-14T20:48:55.250Z,35.50
2024-01-14T20:53:57.179Z,38.30
2024-01-14T20:58:57.123Z,33.70
2024-01-14T21:03:56.247Z,32.70
2024-01-14T21:08:56.359Z,37.30
2024-01-14T21:13:57.497Z,35.80
2024-01-14T21:18:59.502Z,39.50
2024-01-14T21:23:59.398Z,35.60
2024-01-14T21:28:59.401Z,32.00
2024-01-14T21:33:58.608Z,34.90
2024-01-14T21:39:00.596Z,34.40
2024-01-14T21:43:59.605Z,35.40
2024-01-14T21:49:00.664Z,33.00
2024-01-14T21:54:02.644Z,35.30
2024-01-14T21:59:01.631Z,34.70
2024-01-14T22:04:02.749Z,36.50
2024-01-14T22:09:04.721Z,37.50
2024-01-14T22:14:03.679Z,36.00
2024-01-14T22:19:04.867Z,32.30
2024-01-14T22:24:06.004Z,31.50
2024-01-14T22:29:06.932Z,33.10
2024-01-14T22:34:08.068Z,33.30
2024-01-14T22:39:09.969Z,34.90
2024-01-14T22:44:08.983Z,31.50
2024-01-14T22:49:10.099Z,32.10
2024-01-14T22:54:10.131Z,32.90
2024-01-14T22:59:11.019Z,35.10
2024-01-14T23:04:12.088Z,35.80
2024-01-14T23:09:13.357Z,25.80
2024-01-14T23:14:18.490Z,24.20
2024-01-14T23:19:16.714Z,24.60
2024-01-14T23:24:15.668Z,24.20
2024-01-14T23:29:16.611Z,25.90
2024-01-14T23:34:17.645Z,25.70
2024-01-14T23:39:18.559Z,25.30
2024-01-14T23:44:19.511Z,27.90
2024-01-14T23:49:20.559Z,24.40
2024-01-14T23:54:21.585Z,27.30
2024-01-14T23:59:22.597Z,28.60
